Time;durP1;ratioP1;P1;durP2;ratioP2;P2;SDS_P1;SDS_P2;PMS_P1;PMS_P2;Temp;Humidity;BMP_temperature;BMP_pressure;BME280_temperature;BME280_humidity;BME280_pressure;Samples;Min_cycle;Max_cycle;Signal;HPM_P1;HPM_P2
2023/05/19 00:00:07;;;;;;;;;10.60;9.60;;;;;14.55;65.57;99676.38;6073982;28;96447;-62
2023/05/19 00:03:16;;;;;;;;;11.00;11.00;;;;;14.57;65.59;99676.94;6080295;28;96896;-62
2023/05/19 00:06:24;;;;;;;;;14.00;13.60;;;;;14.56;65.36;99667.97;6067420;28;96695;-62
2023/05/19 00:09:28;;;;;;;;;12.20;11.80;;;;;14.65;64.94;99677.47;6085565;28;97673;-62
2023/05/19 00:12:31;;;;;;;;;13.00;12.00;;;;;14.65;64.84;99674.78;6072948;28;96664;-62
2023/05/19 00:15:35;;;;;;;;;12.00;11.50;;;;;14.66;65.15;99667.47;6089486;28;96263;-62
2023/05/19 00:18:40;;;;;;;;;13.00;11.40;;;;;14.68;65.04;99668.03;6069751;28;99234;-62
2023/05/19 00:21:44;;;;;;;;;12.00;12.00;;;;;14.70;64.73;99660.50;6067953;28;96484;-62
2023/05/19 00:24:47;;;;;;;;;11.00;11.00;;;;;14.72;64.54;99670.06;6050350;28;96353;-62
2023/05/19 00:27:51;;;;;;;;;9.20;9.20;;;;;14.71;64.72;99664.84;6068321;28;96459;-62
2023/05/19 00:30:55;;;;;;;;;10.00;9.00;;;;;14.70;64.52;99658.63;6068682;28;96311;-62
2023/05/19 00:34:00;;;;;;;;;8.00;8.00;;;;;14.67;63.81;99648.22;6090782;28;96438;-62
2023/05/19 00:37:04;;;;;;;;;9.00;7.00;;;;;14.69;64.02;99654.25;6088463;28;96989;-62
2023/05/19 00:40:10;;;;;;;;;9.00;8.00;;;;;14.69;63.44;99645.28;6071291;28;96668;-62
2023/05/19 00:43:13;;;;;;;;;9.20;8.60;;;;;14.55;63.38;99625.63;6076117;28;96733;-62
2023/05/19 00:46:16;;;;;;;;;7.00;6.00;;;;;14.70;63.17;99660.50;6072110;28;96282;-62
2023/05/19 00:49:21;;;;;;;;;8.00;8.00;;;;;14.69;63.53;99651.53;6067211;28;96513;-62
2023/05/19 00:52:25;;;;;;;;;8.60;8.20;;;;;14.69;63.66;99651.53;6067562;28;98777;-62
2023/05/19 00:55:31;;;;;;;;;12.00;11.00;;;;;14.71;63.80;99657.53;6073212;28;96362;-62
2023/05/19 00:58:38;;;;;;;;;8.00;7.00;;;;;14.64;63.97;99640.53;6074893;28;96655;-62
2023/05/19 01:01:41;;;;;;;;;7.00;7.00;;;;;14.68;64.13;99647.16;6071261;28;96489;-62
2023/05/19 01:04:46;;;;;;;;;9.80;8.00;;;;;14.69;63.75;99648.81;6082590;28;96813;-62
2023/05/19 01:07:52;;;;;;;;;7.00;7.00;;;;;14.56;63.85;99627.28;6073757;28;96546;-62
2023/05/19 01:10:55;;;;;;;;;8.40;8.40;;;;;14.71;63.57;99659.44;6070914;28;96431;-62
2023/05/19 01:13:59;;;;;;;;;9.00;8.20;;;;;14.49;63.46;99629.25;6083782;28;96480;-62
2023/05/19 01:17:09;;;;;;;;;7.00;7.00;;;;;14.68;63.65;99668.03;6076948;28;96537;-62
2023/05/19 01:20:21;;;;;;;;;9.20;8.00;;;;;14.68;63.73;99662.63;6076955;28;96540;-62
2023/05/19 01:23:36;;;;;;;;;8.00;7.00;;;;;14.69;63.78;99648.81;6053353;28;96712;-62
2023/05/19 01:27:05;;;;;;;;;10.00;8.00;;;;;14.69;63.68;99650.69;6072174;28;96306;-62
2023/05/19 01:30:30;;;;;;;;;10.00;10.00;;;;;14.68;63.77;99644.44;6047253;28;96636;-62
2023/05/19 01:33:35;;;;;;;;;11.25;9.25;;;;;14.67;63.60;99637.34;6057199;28;96315;-62
2023/05/19 01:36:43;;;;;;;;;11.00;10.00;;;;;14.70;63.39;99641.50;6053499;28;96842;-62
2023/05/19 01:39:48;;;;;;;;;8.00;8.00;;;;;14.68;63.62;99633.59;6092893;28;96379;-62
2023/05/19 01:42:54;;;;;;;;;7.20;7.00;;;;;14.68;63.03;99641.72;6070762;28;96343;-62
2023/05/19 01:46:02;;;;;;;;;8.25;8.00;;;;;14.65;62.65;99628.63;6089187;28;96239;-62
2023/05/19 01:49:07;;;;;;;;;11.00;10.60;;;;;14.70;63.56;99636.91;6070537;28;96342;-62
2023/05/19 01:52:11;;;;;;;;;10.20;8.80;;;;;14.60;63.33;99633.91;6070712;28;96842;-62
2023/05/19 01:55:14;;;;;;;;;10.75;10.75;;;;;14.68;63.42;99638.19;6071054;28;96567;-62
2023/05/19 01:58:29;;;;;;;;;9.20;9.20;;;;;14.65;63.40;99634.06;6083337;28;97531;-62
2023/05/19 02:01:43;;;;;;;;;8.00;8.00;;;;;14.57;63.52;99628.94;6038157;28;99253;-62
2023/05/19 02:04:54;;;;;;;;;7.60;7.00;;;;;14.50;63.67;99635.53;6067960;28;96344;-62
2023/05/19 02:08:06;;;;;;;;;8.50;8.00;;;;;14.52;63.56;99626.06;6068503;28;96368;-62
2023/05/19 02:11:25;;;;;;;;;11.00;9.00;;;;;14.49;63.74;99629.25;6037367;28;96728;-62
2023/05/19 02:14:33;;;;;;;;;8.40;7.80;;;;;14.45;63.87;99619.94;6071122;28;96382;-62
2023/05/19 02:17:46;;;;;;;;;13.00;11.00;;;;;14.45;64.26;99621.81;6053238;28;96377;-62
2023/05/19 02:20:50;;;;;;;;;12.00;11.00;;;;;14.45;64.19;99619.94;6068745;28;96762;-62
2023/05/19 02:23:53;;;;;;;;;11.50;11.00;;;;;14.36;64.25;99607.75;6067856;28;96794;-62
2023/05/19 02:26:56;;;;;;;;;11.00;10.20;;;;;14.46;64.25;99618.88;6068445;28;96963;-62
2023/05/19 02:30:00;;;;;;;;;12.40;11.00;;;;;14.44;64.35;99618.25;6070072;28;96473;-62
2023/05/19 02:33:06;;;;;;;;;9.00;9.00;;;;;14.41;63.96;99621.44;6091792;28;96349;-62
2023/05/19 02:36:13;;;;;;;;;12.00;11.40;;;;;14.44;63.82;99620.16;6091616;28;96323;-62
2023/05/19 02:39:16;;;;;;;;;11.00;10.40;;;;;14.39;64.05;99615.41;6067365;28;96724;-62
2023/05/19 02:42:20;;;;;;;;;11.00;10.00;;;;;14.40;63.89;99617.06;6069778;28;96692;-62
2023/05/19 02:45:23;;;;;;;;;11.40;10.40;;;;;14.35;63.56;99616.06;6089048;28;97951;-62
2023/05/19 02:48:28;;;;;;;;;10.00;10.00;;;;;14.32;64.00;99617.34;6084130;28;96324;-62
2023/05/19 02:51:31;;;;;;;;;11.00;10.00;;;;;14.31;64.07;99619.25;6071235;28;96671;-62
2023/05/19 02:54:35;;;;;;;;;11.00;10.00;;;;;14.29;63.99;99612.38;6067990;28;96284;-62
2023/05/19 02:57:38;;;;;;;;;8.80;8.00;;;;;14.29;64.20;99626.78;6091244;28;96633;-62
2023/05/19 03:00:43;;;;;;;;;10.00;9.60;;;;;14.22;64.50;99612.44;6060107;28;96436;-62
2023/05/19 03:03:47;;;;;;;;;11.80;9.20;;;;;14.30;64.70;99620.28;6060678;28;97152;-62
2023/05/19 03:06:52;;;;;;;;;11.00;10.00;;;;;14.27;64.70;99622.63;6065610;28;96692;-62
2023/05/19 03:09:56;;;;;;;;;9.60;8.60;;;;;14.19;65.27;99606.66;6063976;28;96766;-62
2023/05/19 03:12:59;;;;;;;;;10.00;9.00;;;;;14.29;65.12;99623.22;6064007;28;97077;-62
2023/05/19 03:16:03;;;;;;;;;10.00;10.00;;;;;14.29;65.38;99615.09;6056168;28;97954;-62
2023/05/19 03:19:08;;;;;;;;;13.00;12.00;;;;;14.29;65.20;99625.94;6058970;28;97156;-62
2023/05/19 03:22:12;;;;;;;;;11.00;11.00;;;;;14.28;65.52;99621.56;6063662;28;99093;-62
2023/05/19 03:25:15;;;;;;;;;10.00;10.00;;;;;14.33;65.79;99619.81;6067008;28;96240;-62
2023/05/19 03:28:19;;;;;;;;;10.25;9.00;;;;;14.41;65.87;99620.63;6062854;28;96375;-62
2023/05/19 03:31:22;;;;;;;;;7.00;7.00;;;;;14.42;65.63;99619.53;6038542;28;98297;-62
2023/05/19 03:34:27;;;;;;;;;9.00;8.00;;;;;14.43;65.33;99613.06;6048891;28;96986;-62
2023/05/19 03:37:32;;;;;;;;;8.00;8.00;;;;;14.44;65.93;99609.28;6045173;28;96703;-62
2023/05/19 03:40:36;;;;;;;;;9.40;9.00;;;;;14.52;65.36;99611.69;6047106;28;99218;-62
2023/05/19 03:43:44;;;;;;;;;11.60;11.00;;;;;14.53;64.90;99616.88;6082486;28;97532;-62
2023/05/19 03:46:48;;;;;;;;;10.00;10.00;;;;;14.54;65.01;99620.44;6060167;28;97774;-62
2023/05/19 03:50:13;;;;;;;;;11.00;10.00;;;;;14.57;64.88;99614.53;6044494;28;96549;-62
2023/05/19 03:53:29;;;;;;;;;8.00;7.40;;;;;14.60;64.90;99622.22;6043643;28;96725;-62
2023/05/19 03:56:32;;;;;;;;;10.00;8.50;;;;;14.60;64.52;99628.50;6058717;28;97581;-62
2023/05/19 03:59:36;;;;;;;;;7.25;7.00;;;;;14.55;64.56;99622.09;6062634;28;96330;-62
2023/05/19 04:02:39;;;;;;;;;9.00;9.00;;;;;14.51;64.60;99616.31;6056312;28;96873;-62
2023/05/19 04:05:44;;;;;;;;;10.00;9.00;;;;;14.64;64.70;99628.84;6053459;28;97572;-62
2023/05/19 04:08:48;;;;;;;;;8.00;7.60;;;;;14.64;64.69;99632.41;6067893;28;96299;-62
2023/05/19 04:11:51;;;;;;;;;10.50;9.00;;;;;14.62;64.98;99625.53;6063581;28;96491;-62
2023/05/19 04:14:55;;;;;;;;;7.80;7.20;;;;;14.67;65.07;99634.66;6066637;28;96387;-62
2023/05/19 04:17:59;;;;;;;;;9.40;8.00;;;;;14.68;65.17;99628.16;6065249;28;96356;-62
2023/05/19 04:21:07;;;;;;;;;6.00;6.00;;;;;14.73;64.80;99631.00;6058405;28;96730;-62
2023/05/19 04:24:10;;;;;;;;;13.20;11.80;;;;;14.76;64.95;99626.19;6055802;28;97233;-62
2023/05/19 04:27:14;;;;;;;;;11.00;10.20;;;;;14.81;65.17;99638.00;6044259;28;97978;-62
2023/05/19 04:30:21;;;;;;;;;9.00;8.40;;;;;14.87;65.33;99623.50;6044214;28;97507;-62
2023/05/19 04:33:28;;;;;;;;;10.00;10.00;;;;;14.89;65.25;99624.09;6078400;28;96813;-62
2023/05/19 04:36:32;;;;;;;;;9.50;8.00;;;;;14.79;64.84;99629.28;6064302;28;96392;-62
2023/05/19 04:39:41;;;;;;;;;10.75;8.75;;;;;14.76;64.99;99624.28;6029610;28;96578;-62
2023/05/19 04:42:48;;;;;;;;;13.75;11.75;;;;;14.78;65.42;99630.31;6064076;28;96542;-62
2023/05/19 04:45:52;;;;;;;;;12.00;11.00;;;;;14.87;65.62;99625.38;6057787;28;96825;-62
2023/05/19 04:48:59;;;;;;;;;10.00;10.00;;;;;14.84;65.36;99623.97;6063906;28;96208;-62
2023/05/19 04:52:06;;;;;;;;;13.25;11.25;;;;;14.93;65.06;99627.19;6062046;28;96749;-62
2023/05/19 04:55:11;;;;;;;;;9.25;9.25;;;;;14.99;64.90;99623.53;6053507;28;96317;-62
2023/05/19 04:58:17;;;;;;;;;11.00;10.00;;;;;14.99;65.11;99616.22;6041040;28;97047;-62
2023/05/19 05:01:24;;;;;;;;;11.80;10.20;;;;;15.05;64.91;99618.00;6052307;28;96405;-62
2023/05/19 05:04:29;;;;;;;;;11.40;9.00;;;;;15.06;65.18;99613.38;6062763;28;96365;-62
2023/05/19 05:07:35;;;;;;;;;11.80;11.20;;;;;15.17;64.74;99624.28;6090119;28;96334;-62
2023/05/19 05:10:38;;;;;;;;;13.00;10.75;;;;;15.02;64.80;99623.91;6068977;28;96593;-62
2023/05/19 05:13:42;;;;;;;;;12.75;11.50;;;;;14.91;65.14;99621.13;6063087;28;96286;-62
2023/05/19 05:16:46;;;;;;;;;11.00;11.00;;;;;15.02;65.66;99625.78;6036478;28;100270;-62
2023/05/19 05:19:55;;;;;;;;;12.00;11.00;;;;;15.16;65.67;99627.22;6059913;28;96806;-62
2023/05/19 05:23:01;;;;;;;;;13.60;13.00;;;;;15.18;64.99;99625.94;6064056;28;96547;-62
2023/05/19 05:26:14;;;;;;;;;11.67;10.67;;;;;14.99;65.18;99621.66;6096619;28;96713;-62
2023/05/19 05:29:18;;;;;;;;;11.00;8.00;;;;;14.86;65.33;99619.13;6075534;28;96400;-62
2023/05/19 05:32:22;;;;;;;;;9.20;9.00;;;;;14.69;66.28;99629.00;6074391;28;96896;-62
2023/05/19 05:35:25;;;;;;;;;11.00;9.00;;;;;14.53;66.99;99635.06;6069094;28;96394;-62
2023/05/19 05:38:30;;;;;;;;;10.40;9.00;;;;;14.55;67.38;99635.66;6056842;28;96360;-62
2023/05/19 05:41:35;;;;;;;;;10.75;8.75;;;;;14.49;67.68;99639.28;6068034;28;96270;-62
2023/05/19 05:44:44;;;;;;;;;10.00;9.00;;;;;14.54;67.72;99639.44;6075194;28;98603;-62
2023/05/19 05:47:48;;;;;;;;;13.00;10.20;;;;;14.64;67.34;99640.53;6075000;28;96287;-62
2023/05/19 05:50:53;;;;;;;;;9.50;8.50;;;;;14.65;67.15;99635.94;6098913;28;97257;-62
2023/05/19 05:54:02;;;;;;;;;12.40;10.00;;;;;14.79;67.28;99634.69;6085809;28;96343;-62
2023/05/19 05:57:11;;;;;;;;;9.00;8.00;;;;;14.77;66.84;99625.94;6077425;28;96881;-62
2023/05/19 06:00:16;;;;;;;;;12.33;10.33;;;;;14.96;67.07;99640.28;6095395;28;96567;-62
2023/05/19 06:03:27;;;;;;;;;9.80;9.00;;;;;14.94;66.70;99650.56;6071822;28;96279;-62
2023/05/19 06:06:34;;;;;;;;;10.00;9.00;;;;;14.93;66.61;99648.91;6045311;28;98973;-62
2023/05/19 06:09:39;;;;;;;;;10.40;9.00;;;;;14.85;66.63;99658.22;6043309;28;97783;-62
2023/05/19 06:12:44;;;;;;;;;9.00;9.00;;;;;14.84;66.94;99653.84;6045965;28;96639;-63
2023/05/19 06:15:47;;;;;;;;;9.60;9.00;;;;;14.82;67.16;99652.41;6060597;28;96314;-62
2023/05/19 06:18:55;;;;;;;;;10.50;9.50;;;;;14.97;67.10;99667.22;6074197;28;96271;-62
2023/05/19 06:21:59;;;;;;;;;12.00;10.80;;;;;15.01;66.38;99671.13;6067113;28;96658;-62
2023/05/19 06:25:04;;;;;;;;;13.00;11.80;;;;;15.13;66.70;99663.84;6066224;28;96694;-62
2023/05/19 06:28:08;;;;;;;;;10.00;8.40;;;;;15.26;66.58;99661.97;6067040;28;97588;-62
2023/05/19 06:31:12;;;;;;;;;9.00;9.00;;;;;15.30;65.84;99663.16;6066390;28;96283;-62
2023/05/19 06:34:21;;;;;;;;;14.00;11.00;;;;;15.42;65.98;99670.28;6062122;28;96391;-62
2023/05/19 06:37:24;;;;;;;;;13.00;11.00;;;;;15.52;65.74;99669.72;6065114;28;97330;-62
2023/05/19 06:40:29;;;;;;;;;10.60;9.00;;;;;15.46;65.56;99666.03;6042980;28;97229;-62
2023/05/19 06:43:33;;;;;;;;;12.00;10.50;;;;;15.65;64.89;99679.53;6050357;28;97041;-62
2023/05/19 06:46:38;;;;;;;;;12.60;9.60;;;;;15.63;64.19;99679.81;6058779;28;96646;-62
2023/05/19 06:49:41;;;;;;;;;14.60;11.60;;;;;15.61;64.38;99676.47;6042826;28;96352;-63
2023/05/19 06:52:45;;;;;;;;;13.00;12.00;;;;;15.54;64.35;99684.72;6064362;28;96434;-62
2023/05/19 06:55:50;;;;;;;;;13.00;13.00;;;;;15.62;64.42;99680.03;6090409;28;96720;-62
2023/05/19 06:59:05;;;;;;;;;13.40;11.40;;;;;15.53;64.14;99660.53;6089031;28;96541;-62
2023/05/19 07:02:12;;;;;;;;;13.00;11.20;;;;;15.69;64.75;99672.56;6065705;28;96272;-62
2023/05/19 07:05:15;;;;;;;;;13.50;11.50;;;;;15.86;63.70;99681.69;6052142;28;96888;-62
2023/05/19 07:08:23;;;;;;;;;13.00;12.00;;;;;15.90;63.60;99671.97;6066001;28;96949;-62
2023/05/19 07:11:29;;;;;;;;;13.20;12.20;;;;;15.91;63.87;99665.50;6058420;28;96587;-62
2023/05/19 07:14:33;;;;;;;;;12.00;12.00;;;;;15.92;63.75;99670.69;6057932;28;96115;-62
2023/05/19 07:17:36;;;;;;;;;12.00;10.20;;;;;15.89;63.09;99675.75;6042476;28;96827;-62
2023/05/19 07:20:39;;;;;;;;;12.00;12.00;;;;;16.01;63.17;99669.28;6058527;28;96315;-62
2023/05/19 07:23:43;;;;;;;;;11.40;11.00;;;;;16.06;63.14;99665.84;6067381;28;96233;-62
2023/05/19 07:26:48;;;;;;;;;11.00;10.20;;;;;16.11;62.63;99674.09;6046750;28;96600;-62
2023/05/19 07:29:51;;;;;;;;;12.00;10.60;;;;;16.22;62.69;99667.84;6043202;28;96387;-62
2023/05/19 07:32:55;;;;;;;;;10.00;10.00;;;;;16.34;63.15;99671.34;6065618;28;96522;-62
2023/05/19 07:35:58;;;;;;;;;10.80;9.00;;;;;16.50;62.79;99677.09;6078588;28;98782;-62
2023/05/19 07:39:02;;;;;;;;;10.00;9.00;;;;;16.57;61.82;99666.88;6082965;28;96336;-62
2023/05/19 07:42:07;;;;;;;;;10.50;9.50;;;;;16.67;60.94;99670.69;6047674;28;96382;-62
2023/05/19 07:45:10;;;;;;;;;9.00;8.00;;;;;16.58;60.39;99666.69;6061377;28;98317;-62
2023/05/19 07:48:17;;;;;;;;;12.00;10.00;;;;;16.71;61.13;99657.44;6048557;28;96653;-62
2023/05/19 07:51:20;;;;;;;;;11.00;10.60;;;;;16.74;60.85;99668.66;6048786;28;96678;-62
2023/05/19 07:54:24;;;;;;;;;13.40;12.60;;;;;16.89;60.97;99665.41;6051298;28;96529;-62
2023/05/19 07:57:28;;;;;;;;;13.00;11.00;;;;;17.03;60.40;99672.19;6061273;28;96671;-62
2023/05/19 08:00:32;;;;;;;;;11.00;10.00;;;;;16.97;58.85;99669.63;6064773;28;96369;-63
2023/05/19 08:03:36;;;;;;;;;11.60;10.60;;;;;17.03;59.01;99666.75;6049517;28;96530;-62
2023/05/19 08:06:41;;;;;;;;;9.20;9.00;;;;;17.08;60.20;99664.13;6061549;28;96412;-62
2023/05/19 08:09:44;;;;;;;;;11.20;9.20;;;;;17.16;60.06;99668.31;6050404;28;96405;-62
2023/05/19 08:12:49;;;;;;;;;12.25;11.25;;;;;17.20;59.17;99664.88;6067530;28;96470;-62
2023/05/19 08:15:58;;;;;;;;;10.00;9.00;;;;;17.24;58.55;99659.78;6065864;28;96289;-62
2023/05/19 08:19:04;;;;;;;;;12.00;10.00;;;;;17.23;58.84;99661.66;6070369;28;98377;-62
2023/05/19 08:22:07;;;;;;;;;12.00;11.00;;;;;17.22;58.61;99660.00;6088801;28;97077;-62
2023/05/19 08:25:10;;;;;;;;;12.00;11.40;;;;;17.23;58.91;99663.56;6072463;28;96251;-62
2023/05/19 08:28:15;;;;;;;;;11.00;10.40;;;;;17.16;58.72;99666.44;6072247;28;98550;-62
2023/05/19 08:31:19;;;;;;;;;11.00;10.00;;;;;17.18;58.80;99658.84;6089705;28;96401;-62
2023/05/19 08:34:22;;;;;;;;;11.00;10.00;;;;;17.19;58.87;99660.50;6071877;28;96332;-62
2023/05/19 08:37:25;;;;;;;;;10.75;10.25;;;;;17.19;58.64;99665.97;6067491;28;96066;-62
2023/05/19 08:40:30;;;;;;;;;13.20;11.00;;;;;17.14;58.73;99652.25;6066714;28;98081;-62
2023/05/19 08:43:35;;;;;;;;;11.80;11.00;;;;;17.17;58.94;99661.81;6073617;28;96990;-62
2023/05/19 08:46:39;;;;;;;;;10.00;9.20;;;;;17.20;58.82;99669.50;6074036;28;96528;-62
2023/05/19 08:49:46;;;;;;;;;10.80;10.40;;;;;17.27;58.65;99671.00;6067654;28;96562;-62
2023/05/19 08:52:53;;;;;;;;;11.00;11.00;;;;;17.42;58.15;99677.78;6067154;28;96415;-62
2023/05/19 08:56:08;;;;;;;;;11.00;10.00;;;;;17.31;57.89;99669.44;6078863;28;96493;-63
2023/05/19 08:59:14;;;;;;;;;13.00;9.60;;;;;17.43;58.07;99676.72;6089576;28;96406;-62
2023/05/19 09:02:19;;;;;;;;;10.75;9.00;;;;;17.52;57.84;99676.06;6079053;28;96433;-62
2023/05/19 09:05:23;;;;;;;;;13.00;12.00;;;;;17.58;57.46;99672.34;6078604;28;96468;-62
2023/05/19 09:08:26;;;;;;;;;18.40;15.40;;;;;17.63;57.83;99680.63;6071965;28;98416;-62
2023/05/19 09:11:30;;;;;;;;;10.20;9.20;;;;;17.71;58.15;99676.66;6074032;28;96970;-62
2023/05/19 09:14:35;;;;;;;;;8.20;8.20;;;;;17.73;57.28;99678.06;6069294;28;96845;-62
2023/05/19 09:17:39;;;;;;;;;8.80;7.80;;;;;17.73;56.95;99686.25;6077686;28;96438;-62
2023/05/19 09:20:44;;;;;;;;;9.40;8.40;;;;;17.75;57.48;99686.00;6076821;28;96682;-62
2023/05/19 09:23:48;;;;;;;;;9.25;8.00;;;;;17.74;56.92;99684.31;6099209;28;96419;-62
2023/05/19 09:26:51;;;;;;;;;11.00;11.00;;;;;17.76;56.68;99693.09;6089054;28;96239;-62
2023/05/19 09:30:07;;;;;;;;;9.00;8.75;;;;;17.72;57.14;99675.59;6082541;28;96903;-62
2023/05/19 09:33:11;;;;;;;;;9.40;9.40;;;;;17.84;55.91;99686.41;6076041;28;97829;-62
2023/05/19 09:36:14;;;;;;;;;12.00;11.00;;;;;17.83;55.78;99690.22;6091597;28;96275;-62
2023/05/19 09:39:19;;;;;;;;;10.00;9.40;;;;;17.87;56.51;99688.63;6094012;28;96421;-62
2023/05/19 09:42:28;;;;;;;;;8.00;7.50;;;;;17.89;56.41;99681.00;6080909;28;96219;-62
2023/05/19 09:45:33;;;;;;;;;9.75;9.00;;;;;18.02;55.99;99683.41;6082098;28;96373;-62
2023/05/19 09:48:37;;;;;;;;;9.80;8.80;;;;;18.10;55.33;99682.97;6076089;28;97497;-62
2023/05/19 09:51:41;;;;;;;;;10.00;9.00;;;;;18.15;55.20;99680.31;6093786;28;96373;-62
2023/05/19 09:54:45;;;;;;;;;11.40;9.40;;;;;18.18;55.62;99682.53;6060552;28;97029;-62
2023/05/19 09:57:50;;;;;;;;;9.00;8.60;;;;;18.23;55.95;99677.13;6089986;28;96997;-62
2023/05/19 10:00:55;;;;;;;;;9.00;8.00;;;;;18.21;54.96;99679.31;6074963;28;96759;-62
2023/05/19 10:04:00;;;;;;;;;7.00;7.00;;;;;18.22;54.98;99683.69;6094033;28;96464;-62
2023/05/19 10:07:07;;;;;;;;;10.00;10.00;;;;;18.22;54.85;99677.41;6067879;28;96673;-62
2023/05/19 10:10:13;;;;;;;;;10.00;9.00;;;;;18.25;54.71;99685.09;6069601;28;96644;-62
2023/05/19 10:13:17;;;;;;;;;11.50;11.00;;;;;18.26;54.93;99681.28;6069896;28;96476;-62
2023/05/19 10:16:23;;;;;;;;;7.20;6.60;;;;;18.30;55.27;99680.53;6069610;28;96257;-62
2023/05/19 10:19:28;;;;;;;;;9.50;8.00;;;;;18.25;54.21;99685.91;6068621;28;96809;-62
2023/05/19 10:22:32;;;;;;;;;10.60;9.60;;;;;18.30;54.88;99674.22;6050688;28;96311;-62
2023/05/19 10:25:37;;;;;;;;;9.60;9.00;;;;;18.20;54.46;99677.66;6045493;28;97614;-62
2023/05/19 10:28:45;;;;;;;;;10.00;9.00;;;;;18.28;55.25;99676.38;6045921;28;96326;-63
2023/05/19 10:31:52;;;;;;;;;8.60;8.00;;;;;18.26;55.21;99673.09;6059335;28;97059;-62
2023/05/19 10:35:20;;;;;;;;;6.00;5.40;;;;;18.24;55.10;99675.25;6051735;28;96424;-62
2023/05/19 10:38:33;;;;;;;;;11.00;9.75;;;;;18.26;55.13;99664.91;6056802;28;96316;-62
2023/05/19 10:41:46;;;;;;;;;8.50;8.50;;;;;18.39;55.27;99678.19;6058704;28;98593;-63
2023/05/19 10:44:57;;;;;;;;;7.75;7.00;;;;;18.42;55.34;99670.28;6069352;28;96585;-62
2023/05/19 10:48:02;;;;;;;;;8.00;7.50;;;;;18.46;54.55;99679.66;6068414;28;96863;-62
2023/05/19 10:51:10;;;;;;;;;7.00;7.00;;;;;18.52;54.48;99678.63;6067276;28;96666;-62
2023/05/19 10:54:16;;;;;;;;;9.00;9.00;;;;;18.50;54.02;99664.41;6061278;28;100060;-62
2023/05/19 10:57:26;;;;;;;;;8.00;8.00;;;;;18.62;54.41;99675.22;6062239;28;96467;-60
2023/05/19 11:00:31;;;;;;;;;9.60;8.60;;;;;18.57;54.48;99669.69;6067106;28;97227;-60
2023/05/19 11:03:45;;;;;;;;;11.00;9.00;;;;;18.46;54.14;99679.66;6080895;28;97125;-61
2023/05/19 11:06:52;;;;;;;;;8.00;8.00;;;;;18.41;54.26;99678.75;6103933;28;96428;-60
2023/05/19 11:09:55;;;;;;;;;9.40;8.40;;;;;18.29;54.86;99673.41;6104726;28;96272;-61
2023/05/19 11:12:59;;;;;;;;;8.50;8.00;;;;;18.19;55.23;99674.09;6104639;28;96544;-61
2023/05/19 11:16:07;;;;;;;;;8.00;8.00;;;;;18.16;55.56;99674.59;6088516;28;96518;-62
2023/05/19 11:19:18;;;;;;;;;9.80;8.00;;;;;18.26;55.82;99670.38;6106969;28;96396;-60
2023/05/19 11:22:24;;;;;;;;;9.40;9.40;;;;;18.33;55.97;99671.00;6106790;28;96355;-60
2023/05/19 11:25:41;;;;;;;;;9.00;7.00;;;;;18.46;55.85;99678.81;6104733;28;96269;-60
2023/05/19 11:28:45;;;;;;;;;7.75;7.25;;;;;18.34;54.80;99640.72;6072778;28;97193;-60
2023/05/19 11:31:48;;;;;;;;;9.60;8.60;;;;;18.59;55.52;99671.09;6072101;28;96824;-61
2023/05/19 11:34:55;;;;;;;;;9.60;8.40;;;;;18.70;55.83;99673.97;6090551;28;96816;-61
2023/05/19 11:37:59;;;;;;;;;8.20;8.00;;;;;18.83;56.04;99679.84;6107432;28;96405;-59
2023/05/19 11:41:03;;;;;;;;;11.40;10.00;;;;;18.79;54.91;99678.72;6107224;28;96386;-60
2023/05/19 11:44:10;;;;;;;;;9.25;8.25;;;;;18.72;55.08;99675.34;6104957;28;96362;-62
2023/05/19 11:47:14;;;;;;;;;8.00;8.00;;;;;18.70;54.87;99682.97;6109744;28;96329;-60
2023/05/19 11:50:20;;;;;;;;;9.60;8.00;;;;;18.65;55.56;99680.19;6114135;28;96255;-61
2023/05/19 11:53:23;;;;;;;;;10.40;10.00;;;;;18.66;55.58;99681.84;6106662;28;96332;-61
2023/05/19 11:56:27;;;;;;;;;8.75;8.00;;;;;18.74;55.36;99684.13;6106511;28;96426;-61
2023/05/19 11:59:32;;;;;;;;;9.20;9.20;;;;;18.71;55.03;99684.63;6090257;28;96275;-61
2023/05/19 12:02:37;;;;;;;;;10.60;9.00;;;;;18.57;55.45;99683.34;6106687;28;97243;-61
2023/05/19 12:05:45;;;;;;;;;9.80;9.00;;;;;18.54;55.61;99692.06;6089350;28;98933;-61
2023/05/19 12:08:51;;;;;;;;;8.00;8.00;;;;;18.54;55.27;99686.59;6082094;28;98374;-61
2023/05/19 12:11:55;;;;;;;;;7.75;6.75;;;;;18.50;55.77;99683.53;6081419;28;98301;-61
2023/05/19 12:14:58;;;;;;;;;10.00;9.00;;;;;18.61;55.45;99687.25;6081589;28;96788;-61
2023/05/19 12:18:02;;;;;;;;;7.00;7.00;;;;;18.61;55.27;99684.50;6081681;28;98793;-60
2023/05/19 12:21:07;;;;;;;;;9.00;9.00;;;;;18.62;55.54;99688.06;6081954;28;96797;-61
2023/05/19 12:24:11;;;;;;;;;9.80;9.20;;;;;18.65;55.63;99688.38;6082542;28;96214;-60
2023/05/19 12:27:18;;;;;;;;;10.60;10.00;;;;;18.67;55.21;99685.41;6083274;28;96228;-60
2023/05/19 12:30:27;;;;;;;;;10.80;10.00;;;;;18.79;55.42;99680.63;6082576;28;96141;-61
2023/05/19 12:33:33;;;;;;;;;8.00;7.00;;;;;18.86;54.84;99679.31;6080993;28;96617;-61
2023/05/19 12:36:41;;;;;;;;;7.00;6.80;;;;;18.88;54.84;99679.91;6064619;28;96731;-61
2023/05/19 12:39:44;;;;;;;;;16.40;15.40;;;;;19.03;55.71;99673.78;6093166;28;96321;-60
2023/05/19 12:42:50;;;;;;;;;13.00;12.00;;;;;19.08;54.97;99667.53;6082437;28;96265;-61
2023/05/19 12:45:54;;;;;;;;;11.00;10.00;;;;;19.15;55.13;99662.69;6095364;28;96461;-60
2023/05/19 12:48:59;;;;;;;;;12.40;11.00;;;;;19.10;53.54;99668.13;6078649;28;99023;-60
2023/05/19 12:52:05;;;;;;;;;10.00;9.75;;;;;19.07;53.91;99663.97;6082433;28;96253;-60
2023/05/19 12:55:15;;;;;;;;;11.00;10.20;;;;;19.12;54.35;99664.03;6082354;28;96227;-60
2023/05/19 12:58:21;;;;;;;;;11.00;11.00;;;;;19.08;54.79;99668.34;6080970;28;96483;-61
2023/05/19 13:01:24;;;;;;;;;14.00;12.00;;;;;18.91;54.37;99657.50;6093562;28;97025;-61
2023/05/19 13:04:28;;;;;;;;;10.00;9.40;;;;;18.66;55.35;99665.47;6082507;28;96327;-60
2023/05/19 13:07:34;;;;;;;;;12.00;11.75;;;;;18.61;55.91;99665.41;6097076;28;97205;-60
2023/05/19 13:10:43;;;;;;;;;12.40;12.00;;;;;18.46;56.46;99671.47;6096851;28;96422;-60
2023/05/19 13:13:46;;;;;;;;;16.00;13.40;;;;;18.32;56.63;99659.28;6069146;28;96635;-61
2023/05/19 13:16:50;;;;;;;;;9.20;9.00;;;;;18.08;57.22;99664.09;6101128;28;96610;-61
2023/05/19 13:19:53;;;;;;;;;12.00;12.00;;;;;18.14;58.00;99659.56;6104116;28;96335;-61
2023/05/19 13:22:59;;;;;;;;;11.00;10.00;;;;;18.21;58.14;99648.47;6085933;28;96331;-62
2023/05/19 13:26:03;;;;;;;;;11.60;11.60;;;;;18.27;57.62;99653.75;6104678;28;97057;-61
2023/05/19 13:29:07;;;;;;;;;11.00;10.00;;;;;18.31;56.86;99656.78;6101991;28;96529;-61
2023/05/19 13:32:10;;;;;;;;;12.60;11.60;;;;;18.29;56.75;99651.56;6102240;28;96912;-60
2023/05/19 13:35:14;;;;;;;;;9.00;9.00;;;;;18.37;56.24;99655.78;6077837;28;99083;-61
2023/05/19 13:38:19;;;;;;;;;11.00;9.80;;;;;18.44;56.54;99656.41;6079750;28;96375;-61
2023/05/19 13:41:24;;;;;;;;;11.67;10.00;;;;;18.52;56.19;99650.50;6083388;28;98637;-61
2023/05/19 13:44:28;;;;;;;;;10.00;10.00;;;;;18.41;55.93;99640.53;6086032;28;98563;-60
2023/05/19 13:47:31;;;;;;;;;11.00;10.25;;;;;18.50;56.34;99655.38;6088297;28;96299;-61
2023/05/19 13:50:35;;;;;;;;;13.00;12.00;;;;;18.40;56.47;99647.91;6105556;28;96392;-61
2023/05/19 13:53:40;;;;;;;;;13.40;11.40;;;;;18.33;56.85;99647.25;6103982;28;96312;-61
2023/05/19 13:56:44;;;;;;;;;13.00;12.00;;;;;18.26;56.91;99648.53;6100092;28;96802;-61
2023/05/19 13:59:48;;;;;;;;;12.80;12.80;;;;;18.26;57.45;99652.09;6084746;28;96239;-61
2023/05/19 14:03:14;;;;;;;;;14.80;13.00;;;;;18.27;57.21;99656.47;6092531;28;96235;-60
2023/05/19 14:06:18;;;;;;;;;11.00;11.00;;;;;18.27;57.25;99656.47;6108719;28;96239;-61
2023/05/19 14:09:23;;;;;;;;;12.60;11.60;;;;;18.31;56.75;99657.63;6104713;28;96812;-60
2023/05/19 14:12:26;;;;;;;;;15.00;14.00;;;;;18.40;56.77;99658.81;6109978;28;96489;-62
2023/05/19 14:15:45;;;;;;;;;10.75;10.25;;;;;18.27;56.62;99659.19;6110156;28;96368;-61
2023/05/19 14:18:49;;;;;;;;;10.00;10.00;;;;;18.22;56.69;99656.41;6110189;28;96183;-60
2023/05/19 14:21:52;;;;;;;;;12.40;11.60;;;;;18.29;56.46;99664.38;6091723;28;97146;-61